CESSNOCK, Australia

8:52 AM AEDT on December 07, 2016 (GMT +1100)
cessnock | | Change Station

Elev 223 ft 32.82 °S, 151.36 °E | Updated 16 seconds ago

Mostly Cloudy
Mostly Cloudy
73.8 °F
Feels Like 76 °F
N
1.6
Wind Variable Wind from North
Gusts 3.1 mph

Today
High -- | Low -- °F
--% Chance of Precip.
Yesterday
High -- | Low -- °F
Precip. -- in
Pressure 29.95 in
Visibility 6.2 miles
Clouds Few 4000 ft
Mostly Cloudy 6500 ft
Heat Index 76 °F
Dew Point 64 °F
Humidity 71%
Rainfall 0.24 in
Snow Depth Not available.
5:39 AM 7:53 PM
Waxing Crescent, 45% visible
METAR YWLM 062130Z 24006KT 9999 FEW040 BKN065 20/18 Q1014 FM2300 15010KT 9999 -SHRA SCT020 BKN040
Pressure 29.95 in
Visibility 6.2 miles
Clouds Few 4000 ft
Mostly Cloudy 6500 ft
Heat Index 76 °F
Dew Point 64 °F
Humidity 71%
Rainfall 0.24 in
Snow Depth Not available.
5:39 AM 7:53 PM
Waxing Crescent, 45% visible
METAR YWLM 062130Z 24006KT 9999 FEW040 BKN065 20/18 Q1014 FM2300 15010KT 9999 -SHRA SCT020 BKN040

10-Day Weather Forecast

×

Almanac

Astronomy

Dec. 07, 2016 Rise Set
Actual Time
Civil Twilight
Nautical Twilight
Astronomical Twilight
Moon
Length of Visible Light
Length of Day
Tomorrow will be .
, % of the Moon is Illuminated

Today's Extremes

Country Highs Country Lows

Community

WunderPhotos

Upload Photos

1,956,033 photos uploaded!

WunderBlog® & News

Nearby

Air Quality

  Air Quality AQ Index Pollutant
Not available.

Snow Depth

Station Depth Elevation

Earthquake Activity

City Distance Mag. Time & Date
Minimum magnitude displayed is 2.5.

Coastal Water Temperatures

Place Temperature

Stations

Nearby Weather Stations

Station Location Temp. Windchill Dew Point Humidity Wind Precip. Elev Updated Type